Wetterstation Vordersexau
Wetterdaten: Woche 31.03.14 - 06.04.14 (KW14)
Datum Zeit Temp. A. Feuchte A. Luftdruck Regen Wind Richtung Taupunkt Windchill Windben
31.03.2014 00:00 8,2 C 76 % 985,5 hPa 0,0 l/m 0,0 km/h O-NO 4,2 C 8,2 C 0,0 km/h
31.03.2014 01:00 7,4 C 78 % 985,6 hPa 0,0 l/m 0,0 km/h NO 3,8 C 7,4 C 0,0 km/h
31.03.2014 02:00 6,7 C 80 % 985,6 hPa 0,0 l/m 0,0 km/h O-NO 3,5 C 6,7 C 0,0 km/h
31.03.2014 03:00 5,6 C 81 % 985,4 hPa 0,0 l/m 0,0 km/h NO 2,6 C 5,6 C 0,0 km/h
31.03.2014 04:00 5,4 C 82 % 985,3 hPa 0,0 l/m 0,0 km/h NO 2,6 C 5,4 C 0,0 km/h
31.03.2014 05:00 5,2 C 83 % 985,7 hPa 0,0 l/m 0,0 km/h O-SO 2,6 C 5,2 C 0,0 km/h
31.03.2014 06:00 4,9 C 83 % 985,9 hPa 0,0 l/m 0,0 km/h O-SO 2,3 C 4,9 C 0,0 km/h
31.03.2014 07:00 5,1 C 83 % 986,0 hPa 0,0 l/m 0,0 km/h O-SO 2,5 C 5,1 C 0,0 km/h
31.03.2014 08:00 7,2 C 83 % 986,3 hPa 0,0 l/m 0,0 km/h SO 4,5 C 7,2 C 0,0 km/h
31.03.2014 09:00 12,9 C 73 % 986,1 hPa 0,0 l/m 4,5 km/h SO 8,2 C 12,9 C 2,5 km/h
31.03.2014 10:00 19,1 C 58 % 986,2 hPa 0,0 l/m 0,0 km/h W 10,6 C 19,1 C 0,0 km/h
31.03.2014 11:00 20,2 C 51 % 986,5 hPa 0,0 l/m 1,3 km/h W 9,7 C 20,2 C 0,7 km/h
31.03.2014 12:00 21,6 C 47 % 986,3 hPa 0,0 l/m 22,0 km/h W 9,8 C 18,0 C 12,2 km/h
31.03.2014 13:00 24,5 C 42 % 985,8 hPa 0,0 l/m 1,3 km/h SO 10,7 C 24,5 C 0,7 km/h
31.03.2014 14:00 24,6 C 39 % 985,3 hPa 0,0 l/m 9,1 km/h W 9,7 C 23,9 C 5,0 km/h
31.03.2014 15:00 26,1 C 35 % 984,4 hPa 0,0 l/m 0,0 km/h W 9,4 C 26,1 C 0,0 km/h
31.03.2014 16:00 27,6 C 30 % 983,5 hPa 0,0 l/m 7,1 km/h W-NW 8,4 C 27,5 C 4,0 km/h
31.03.2014 17:00 27,2 C 30 % 983,0 hPa 0,0 l/m 0,0 km/h W 8,1 C 27,2 C 0,0 km/h
31.03.2014 18:00 24,9 C 33 % 983,0 hPa 0,0 l/m 0,0 km/h W 7,5 C 24,9 C 0,0 km/h
31.03.2014 19:00 19,1 C 43 % 983,0 hPa 0,0 l/m 0,0 km/h W 6,2 C 19,1 C 0,0 km/h
31.03.2014 20:00 13,5 C 55 % 983,5 hPa 0,0 l/m 0,0 km/h NO 4,6 C 13,5 C 0,0 km/h
31.03.2014 21:00 12,1 C 61 % 983,7 hPa 0,0 l/m 0,0 km/h O-NO 4,8 C 12,1 C 0,0 km/h
31.03.2014 22:00 10,5 C 68 % 983,9 hPa 0,0 l/m 0,0 km/h O-SO 4,8 C 10,5 C 0,0 km/h
31.03.2014 23:00 9,9 C 71 % 984,2 hPa 0,0 l/m 0,0 km/h O-SO 4,9 C 9,9 C 0,0 km/h
01.04.2014 00:00 9,0 C 73 % 984,3 hPa 0,0 l/m 0,0 km/h O-NO 4,4 C 9,0 C 0,0 km/h
01.04.2014 01:00 8,8 C 76 % 984,4 hPa 0,0 l/m 0,0 km/h O-SO 4,8 C 8,8 C 0,0 km/h
01.04.2014 02:00 8,7 C 76 % 984,3 hPa 0,0 l/m 0,0 km/h O-SO 4,7 C 8,7 C 0,0 km/h
01.04.2014 03:00 7,6 C 78 % 984,2 hPa 0,0 l/m 0,0 km/h O-SO 4,0 C 7,6 C 0,0 km/h
01.04.2014 04:00 7,0 C 80 % 984,1 hPa 0,0 l/m 0,0 km/h O-NO 3,8 C 7,0 C 0,0 km/h
01.04.2014 05:00 7,5 C 80 % 984,3 hPa 0,0 l/m 0,0 km/h O-SO 4,3 C 7,5 C 0,0 km/h
01.04.2014 06:00 6,5 C 81 % 984,1 hPa 0,0 l/m 0,0 km/h SO 3,5 C 6,5 C 0,0 km/h
01.04.2014 07:00 6,6 C 82 % 984,1 hPa 0,0 l/m 0,0 km/h SO 3,8 C 6,6 C 0,0 km/h
01.04.2014 08:00 7,5 C 82 % 984,3 hPa 0,0 l/m 0,0 km/h NO 4,6 C 7,5 C 0,0 km/h
01.04.2014 09:00 13,6 C 71 % 984,0 hPa 0,0 l/m 0,0 km/h SO 8,4 C 13,6 C 0,0 km/h
01.04.2014 10:00 17,8 C 59 % 983,8 hPa 0,0 l/m 3,9 km/h NW 9,7 C 17,8 C 2,2 km/h
01.04.2014 11:00 22,8 C 45 % 983,5 hPa 0,0 l/m 0,0 km/h N-NW 10,2 C 22,8 C 0,0 km/h
01.04.2014 12:00 24,4 C 40 % 983,5 hPa 0,0 l/m 1,9 km/h W 9,9 C 24,4 C 1,1 km/h
01.04.2014 13:00 25,4 C 39 % 982,6 hPa 0,0 l/m 0,0 km/h W-NW 10,4 C 25,4 C 0,0 km/h
01.04.2014 14:00 25,8 C 38 % 982,2 hPa 0,0 l/m 8,4 km/h NW 10,4 C 25,4 C 4,7 km/h
01.04.2014 15:00 26,1 C 35 % 981,7 hPa 0,0 l/m 0,0 km/h N-NO 9,4 C 26,1 C 0,0 km/h
01.04.2014 16:00 26,5 C 32 % 981,1 hPa 0,0 l/m 20,1 km/h N 8,4 C 24,6 C 11,2 km/h
01.04.2014 17:00 25,9 C 35 % 981,0 hPa 0,0 l/m 0,0 km/h W-NW 9,3 C 25,9 C 0,0 km/h
01.04.2014 18:00 22,1 C 43 % 980,7 hPa 0,0 l/m 0,0 km/h W-NW 8,9 C 22,1 C 0,0 km/h
01.04.2014 19:00 18,8 C 48 % 980,7 hPa 0,0 l/m 0,0 km/h NW 7,6 C 18,8 C 0,0 km/h
01.04.2014 20:00 14,6 C 59 % 980,8 hPa 0,0 l/m 0,0 km/h SO 6,7 C 14,6 C 0,0 km/h
01.04.2014 21:00 13,8 C 64 % 981,0 hPa 0,0 l/m 0,0 km/h O-SO 7,1 C 13,8 C 0,0 km/h
01.04.2014 22:00 12,4 C 71 % 981,0 hPa 0,0 l/m 0,0 km/h SO 7,3 C 12,4 C 0,0 km/h
01.04.2014 23:00 11,2 C 74 % 981,3 hPa 0,0 l/m 1,4 km/h O-SO 6,7 C 11,2 C 1,4 km/h
02.04.2014 00:00 9,9 C 77 % 981,1 hPa 0,0 l/m 2,2 km/h O-SO 6,1 C 9,9 C 2,2 km/h
02.04.2014 01:00 9,3 C 78 % 981,2 hPa 0,0 l/m 0,0 km/h O-NO 5,7 C 9,3 C 0,0 km/h
02.04.2014 02:00 8,5 C 80 % 981,5 hPa 0,0 l/m 0,0 km/h O-SO 5,3 C 8,5 C 0,0 km/h
02.04.2014 03:00 7,4 C 81 % 981,6 hPa 0,0 l/m 0,0 km/h O 4,4 C 7,4 C 0,0 km/h
02.04.2014 04:00 7,1 C 82 % 981,3 hPa 0,0 l/m 0,0 km/h SO 4,2 C 7,1 C 0,0 km/h
02.04.2014 05:00 6,7 C 83 % 981,0 hPa 0,0 l/m 1,3 km/h N-NO 4,0 C 6,7 C 0,7 km/h
02.04.2014 06:00 6,8 C 83 % 980,8 hPa 0,0 l/m 0,0 km/h SO 4,1 C 6,8 C 0,0 km/h
02.04.2014 07:00 6,8 C 83 % 980,7 hPa 0,0 l/m 0,0 km/h O-NO 4,1 C 6,8 C 0,0 km/h
02.04.2014 08:00 8,1 C 82 % 980,9 hPa 0,0 l/m 0,0 km/h O-SO 5,2 C 8,1 C 0,0 km/h
02.04.2014 09:00 16,7 C 68 % 980,4 hPa 0,0 l/m 0,0 km/h W-SW 10,8 C 16,7 C 0,0 km/h
02.04.2014 10:00 20,4 C 52 % 980,2 hPa 0,0 l/m 0,0 km/h N 10,2 C 20,4 C 0,0 km/h
02.04.2014 11:00 24,3 C 44 % 980,0 hPa 0,0 l/m 0,0 km/h W-NW 11,3 C 24,3 C 0,0 km/h
02.04.2014 12:00 25,8 C 40 % 979,2 hPa 0,0 l/m 3,2 km/h S-SO 11,2 C 25,8 C 1,8 km/h
02.04.2014 13:00 26,9 C 39 % 978,6 hPa 0,0 l/m 3,2 km/h W 11,8 C 26,9 C 1,8 km/h
02.04.2014 14:00 26,1 C 34 % 977,9 hPa 0,0 l/m 5,2 km/h W-NW 9,0 C 26,1 C 2,9 km/h
02.04.2014 15:00 26,9 C 31 % 976,8 hPa 0,0 l/m 0,0 km/h N-NO 8,3 C 26,9 C 0,0 km/h
02.04.2014 16:00 28,2 C 29 % 976,2 hPa 0,0 l/m 0,0 km/h SW 8,5 C 28,2 C 0,0 km/h
02.04.2014 17:00 28,1 C 31 % 975,7 hPa 0,0 l/m 1,9 km/h W 9,4 C 28,1 C 1,1 km/h
02.04.2014 18:00 23,4 C 38 % 975,7 hPa 0,0 l/m 0,6 km/h S-SW 8,3 C 23,4 C 0,4 km/h
02.04.2014 19:00 20,9 C 41 % 975,7 hPa 0,0 l/m 0,0 km/h NO 7,2 C 20,9 C 0,0 km/h
02.04.2014 20:00 15,9 C 51 % 975,6 hPa 0,0 l/m 0,0 km/h O-NO 5,8 C 15,9 C 0,0 km/h
02.04.2014 21:00 13,9 C 57 % 976,1 hPa 0,0 l/m 0,0 km/h SO 5,5 C 13,9 C 0,0 km/h
02.04.2014 22:00 12,3 C 62 % 976,2 hPa 0,0 l/m 0,0 km/h O 5,2 C 12,3 C 0,0 km/h
02.04.2014 23:00 11,6 C 65 % 976,1 hPa 0,0 l/m 0,0 km/h O 5,2 C 11,6 C 0,0 km/h
03.04.2014 00:00 11,4 C 65 % 976,1 hPa 0,0 l/m 0,0 km/h O 5,1 C 11,4 C 0,0 km/h
03.04.2014 01:00 11,1 C 67 % 976,2 hPa 0,0 l/m 0,0 km/h O-NO 5,2 C 11,1 C 0,0 km/h
03.04.2014 02:00 10,7 C 68 % 976,1 hPa 0,0 l/m 0,0 km/h O-NO 5,0 C 10,7 C 0,0 km/h
03.04.2014 03:00 9,4 C 71 % 976,2 hPa 0,0 l/m 0,0 km/h O-NO 4,4 C 9,4 C 0,0 km/h
03.04.2014 04:00 9,9 C 72 % 975,0 hPa 0,0 l/m 0,0 km/h N 5,1 C 9,9 C 0,0 km/h
03.04.2014 05:00 10,9 C 69 % 975,7 hPa 0,0 l/m 0,0 km/h SO 5,4 C 10,9 C 0,0 km/h
03.04.2014 06:00 9,1 C 74 % 975,5 hPa 0,0 l/m 0,0 km/h O-SO 4,7 C 9,1 C 0,0 km/h
03.04.2014 07:00 8,4 C 77 % 976,1 hPa 0,0 l/m 0,0 km/h O-NO 4,6 C 8,4 C 0,0 km/h
03.04.2014 08:00 11,1 C 75 % 975,9 hPa 0,0 l/m 0,0 km/h O-SO 6,8 C 11,1 C 0,0 km/h
03.04.2014 09:00 15,1 C 65 % 975,4 hPa 0,0 l/m 0,0 km/h W 8,6 C 15,1 C 0,0 km/h
03.04.2014 10:00 17,9 C 58 % 975,3 hPa 0,0 l/m 0,0 km/h O-SO 9,5 C 17,9 C 0,0 km/h
03.04.2014 11:00 18,9 C 58 % 974,9 hPa 0,0 l/m 1,3 km/h W 10,5 C 18,9 C 0,7 km/h
03.04.2014 12:00 19,4 C 56 % 975,3 hPa 0,0 l/m 0,0 km/h W-NW 10,4 C 19,4 C 0,0 km/h
03.04.2014 13:00 20,1 C 53 % 975,3 hPa 0,0 l/m 0,0 km/h NW 10,2 C 20,1 C 0,0 km/h
03.04.2014 14:00 21,1 C 50 % 975,0 hPa 0,0 l/m 0,0 km/h W-SW 10,3 C 21,1 C 0,0 km/h
03.04.2014 15:00 19,9 C 57 % 975,0 hPa 0,0 l/m 0,0 km/h SW 11,1 C 19,9 C 0,0 km/h
03.04.2014 16:00 19,3 C 59 % 974,6 hPa 0,0 l/m 0,0 km/h SW 11,1 C 19,3 C 0,0 km/h
03.04.2014 17:00 18,4 C 65 % 974,4 hPa 0,0 l/m 0,0 km/h O-SO 11,7 C 18,4 C 0,0 km/h
03.04.2014 18:00 17,0 C 66 % 974,3 hPa 0,0 l/m 0,0 km/h O-NO 10,6 C 17,0 C 0,0 km/h
03.04.2014 19:00 15,2 C 68 % 974,4 hPa 0,0 l/m 0,0 km/h O-NO 9,3 C 15,2 C 0,0 km/h
03.04.2014 20:00 13,3 C 75 % 974,6 hPa 0,0 l/m 0,0 km/h O-SO 9,0 C 13,3 C 0,0 km/h
03.04.2014 21:00 12,3 C 76 % 975,1 hPa 0,0 l/m 1,8 km/h SO 8,2 C 12,3 C 1,8 km/h
03.04.2014 22:00 10,9 C 79 % 975,1 hPa 0,0 l/m 0,0 km/h O-SO 7,4 C 10,9 C 0,0 km/h
03.04.2014 23:00 10,8 C 80 % 975,0 hPa 0,0 l/m 0,0 km/h O-SO 7,5 C 10,8 C 0,0 km/h
04.04.2014 00:00 10,5 C 81 % 975,2 hPa 0,0 l/m 0,0 km/h O-SO 7,4 C 10,5 C 0,0 km/h
04.04.2014 01:00 10,4 C 81 % 975,1 hPa 0,0 l/m 0,0 km/h NO 7,3 C 10,4 C 0,0 km/h
04.04.2014 02:00 10,2 C 81 % 975,3 hPa 0,0 l/m 0,0 km/h O-SO 7,1 C 10,2 C 0,0 km/h
04.04.2014 03:00 9,5 C 81 % 975,2 hPa 0,0 l/m 0,0 km/h O-SO 6,4 C 9,5 C 0,0 km/h
04.04.2014 04:00 8,6 C 82 % 975,5 hPa 0,0 l/m 0,0 km/h O-NO 5,7 C 8,6 C 0,0 km/h
04.04.2014 05:00 8,3 C 82 % 975,2 hPa 0,0 l/m 0,0 km/h O-SO 5,4 C 8,3 C 0,0 km/h
04.04.2014 06:00 7,9 C 83 % 975,5 hPa 0,0 l/m 0,0 km/h N-NO 5,2 C 7,9 C 0,0 km/h
04.04.2014 07:00 7,8 C 83 % 975,9 hPa 0,0 l/m 0,0 km/h O-NO 5,1 C 7,8 C 0,0 km/h
04.04.2014 08:00 8,3 C 83 % 976,1 hPa 0,0 l/m 0,0 km/h SO 5,6 C 8,3 C 0,0 km/h
04.04.2014 09:00 9,9 C 82 % 976,3 hPa 0,0 l/m 0,0 km/h O-SO 7,0 C 9,9 C 0,0 km/h
04.04.2014 10:00 12,4 C 79 % 976,9 hPa 0,0 l/m 0,0 km/h S-SO 8,9 C 12,4 C 0,0 km/h
04.04.2014 11:00 14,9 C 71 % 977,1 hPa 0,0 l/m 0,0 km/h W 9,7 C 14,9 C 0,0 km/h
04.04.2014 12:00 16,9 C 63 % 977,2 hPa 0,0 l/m 2,6 km/h SW 9,8 C 16,9 C 1,4 km/h
04.04.2014 13:00 17,9 C 61 % 977,4 hPa 0,0 l/m 1,3 km/h SW 10,3 C 17,9 C 0,7 km/h
04.04.2014 14:00 17,9 C 61 % 977,2 hPa 0,0 l/m 0,0 km/h W 10,3 C 17,9 C 0,0 km/h
04.04.2014 15:00 18,1 C 60 % 977,3 hPa 0,0 l/m 0,0 km/h W-SW 10,2 C 18,1 C 0,0 km/h
04.04.2014 16:00 18,1 C 60 % 977,1 hPa 0,0 l/m 0,0 km/h S 10,2 C 18,1 C 0,0 km/h
04.04.2014 17:00 18,3 C 59 % 977,3 hPa 0,0 l/m 0,0 km/h S 10,1 C 18,3 C 0,0 km/h
04.04.2014 18:00 17,1 C 63 % 977,6 hPa 0,0 l/m 0,0 km/h S 10,0 C 17,1 C 0,0 km/h
04.04.2014 19:00 14,7 C 68 % 978,1 hPa 0,0 l/m 0,0 km/h O 8,9 C 14,7 C 0,0 km/h
04.04.2014 20:00 11,9 C 76 % 978,6 hPa 0,0 l/m 0,0 km/h O-SO 7,8 C 11,9 C 0,0 km/h
04.04.2014 21:00 11,2 C 79 % 979,3 hPa 0,0 l/m 0,0 km/h O-SO 7,7 C 11,2 C 0,0 km/h
04.04.2014 22:00 9,8 C 82 % 979,8 hPa 0,0 l/m 0,0 km/h O-SO 6,9 C 9,8 C 0,0 km/h
04.04.2014 23:00 9,1 C 83 % 980,1 hPa 0,0 l/m 0,0 km/h O-SO 6,4 C 9,1 C 0,0 km/h
05.04.2014 00:00 9,1 C 83 % 980,5 hPa 0,0 l/m 0,0 km/h O 6,4 C 9,1 C 0,0 km/h
05.04.2014 01:00 8,5 C 84 % 980,8 hPa 0,0 l/m 0,0 km/h O 6,0 C 8,5 C 0,0 km/h
05.04.2014 02:00 7,6 C 83 % 981,2 hPa 0,0 l/m 0,0 km/h O-SO 4,9 C 7,6 C 0,0 km/h
05.04.2014 03:00 6,8 C 83 % 981,7 hPa 0,0 l/m 0,0 km/h O-NO 4,1 C 6,8 C 0,0 km/h
05.04.2014 04:00 6,6 C 82 % 981,8 hPa 0,0 l/m 0,0 km/h N-NO 3,8 C 6,6 C 0,0 km/h
05.04.2014 05:00 6,4 C 81 % 982,4 hPa 0,0 l/m 0,0 km/h N-NO 3,4 C 6,4 C 0,0 km/h
05.04.2014 06:00 7,3 C 80 % 982,7 hPa 0,0 l/m 0,0 km/h O-SO 4,1 C 7,3 C 0,0 km/h
05.04.2014 07:00 8,4 C 78 % 983,3 hPa 0,0 l/m 0,0 km/h SO 4,8 C 8,4 C 0,0 km/h
05.04.2014 08:00 9,7 C 78 % 984,1 hPa 0,0 l/m 0,0 km/h O-NO 6,1 C 9,7 C 0,0 km/h
05.04.2014 09:00 11,0 C 82 % 984,3 hPa 0,0 l/m 0,0 km/h SO 8,0 C 11,0 C 0,0 km/h
05.04.2014 10:00 11,6 C 83 % 985,2 hPa 0,0 l/m 0,0 km/h SO 8,8 C 11,6 C 0,0 km/h
05.04.2014 11:00 12,6 C 83 % 985,6 hPa 0,0 l/m 0,0 km/h W-SW 9,8 C 12,6 C 0,0 km/h
05.04.2014 12:00 13,9 C 80 % 986,2 hPa 0,0 l/m 0,0 km/h W 10,5 C 13,9 C 0,0 km/h
05.04.2014 13:00 13,9 C 81 % 986,2 hPa 0,0 l/m 0,0 km/h W 10,7 C 13,9 C 0,0 km/h
05.04.2014 14:00 14,7 C 80 % 986,7 hPa 0,0 l/m 0,0 km/h W 11,3 C 14,7 C 0,0 km/h
05.04.2014 15:00 14,6 C 79 % 986,7 hPa 0,0 l/m 0,0 km/h W 11,0 C 14,6 C 0,0 km/h
05.04.2014 16:00 13,9 C 81 % 987,0 hPa 0,0 l/m 0,0 km/h W-SW 10,7 C 13,9 C 0,0 km/h
05.04.2014 17:00 13,3 C 83 % 987,2 hPa 0,0 l/m 0,0 km/h W 10,5 C 13,3 C 0,0 km/h
05.04.2014 18:00 12,8 C 83 % 987,6 hPa 0,0 l/m 0,0 km/h W 10,0 C 12,8 C 0,0 km/h
05.04.2014 19:00 12,4 C 83 % 987,9 hPa 0,0 l/m 0,0 km/h W 9,6 C 12,4 C 0,0 km/h
05.04.2014 20:00 11,8 C 83 % 988,5 hPa 0,0 l/m 0,0 km/h S-SW 9,0 C 11,8 C 0,0 km/h
05.04.2014 21:00 11,5 C 83 % 989,4 hPa 0,0 l/m 0,0 km/h S-SW 8,7 C 11,5 C 0,0 km/h
05.04.2014 22:00 11,4 C 82 % 989,6 hPa 0,0 l/m 0,0 km/h SW 8,4 C 11,4 C 0,0 km/h
05.04.2014 23:00 11,3 C 81 % 989,8 hPa 0,0 l/m 0,0 km/h N-NO 8,2 C 11,3 C 0,0 km/h
06.04.2014 00:00 11,0 C 80 % 990,1 hPa 0,0 l/m 0,0 km/h N-NO 7,7 C 11,0 C 0,0 km/h
06.04.2014 01:00 10,9 C 80 % 990,3 hPa 0,0 l/m 0,0 km/h N-NO 7,6 C 10,9 C 0,0 km/h
06.04.2014 02:00 10,8 C 79 % 990,4 hPa 0,0 l/m 0,0 km/h N-NO 7,3 C 10,8 C 0,0 km/h
06.04.2014 03:00 10,8 C 79 % 990,4 hPa 0,0 l/m 0,0 km/h N-NO 7,3 C 10,8 C 0,0 km/h
06.04.2014 04:00 10,4 C 79 % 990,1 hPa 0,0 l/m 0,0 km/h N-NO 6,9 C 10,4 C 0,0 km/h
06.04.2014 05:00 10,3 C 78 % 990,1 hPa 0,0 l/m 0,0 km/h N-NO 6,6 C 10,3 C 0,0 km/h
06.04.2014 06:00 9,6 C 78 % 989,9 hPa 0,0 l/m 0,0 km/h SO 6,0 C 9,6 C 0,0 km/h
06.04.2014 07:00 9,3 C 76 % 990,5 hPa 0,0 l/m 0,0 km/h SO 5,3 C 9,3 C 0,0 km/h
06.04.2014 08:00 10,3 C 72 % 991,0 hPa 0,0 l/m 0,0 km/h N-NO 5,5 C 10,3 C 0,0 km/h
06.04.2014 09:00 14,4 C 77 % 991,2 hPa 0,0 l/m 0,0 km/h NO 10,4 C 14,4 C 0,0 km/h
06.04.2014 10:00 16,8 C 79 % 991,4 hPa 0,0 l/m 0,0 km/h SW 13,1 C 16,8 C 0,0 km/h
06.04.2014 11:00 22,3 C 62 % 991,1 hPa 0,0 l/m 0,0 km/h S 14,7 C 22,3 C 0,0 km/h
06.04.2014 12:00 24,3 C 51 % 990,9 hPa 0,0 l/m 0,0 km/h W-NW 13,5 C 24,3 C 0,0 km/h
06.04.2014 13:00 23,6 C 49 % 990,7 hPa 0,0 l/m 0,0 km/h S-SO 12,2 C 23,6 C 0,0 km/h
06.04.2014 14:00 22,5 C 50 % 990,2 hPa 0,0 l/m 0,0 km/h W 11,5 C 22,5 C 0,0 km/h
06.04.2014 15:00 25,3 C 44 % 989,8 hPa 0,0 l/m 5,2 km/h W-NW 12,2 C 25,3 C 2,9 km/h
06.04.2014 16:00 27,3 C 40 % 989,4 hPa 0,0 l/m 10,4 km/h W 12,5 C 26,6 C 5,8 km/h
06.04.2014 17:00 29,8 C 34 % 989,1 hPa 0,0 l/m 4,5 km/h W 12,2 C 29,8 C 2,5 km/h
06.04.2014 18:00 26,6 C 35 % 989,0 hPa 0,0 l/m 0,0 km/h W 9,9 C 26,6 C 0,0 km/h
06.04.2014 19:00 23,4 C 41 % 989,1 hPa 0,0 l/m 0,0 km/h NO 9,4 C 23,4 C 0,0 km/h
06.04.2014 20:00 14,7 C 61 % 989,4 hPa 0,0 l/m 0,0 km/h O-SO 7,3 C 14,7 C 0,0 km/h
06.04.2014 21:00 11,7 C 70 % 990,1 hPa 0,0 l/m 0,0 km/h O-NO 6,4 C 11,7 C 0,0 km/h
06.04.2014 22:00 10,9 C 76 % 990,3 hPa 0,0 l/m 0,0 km/h O-NO 6,8 C 10,9 C 0,0 km/h
06.04.2014 23:00 9,4 C 78 % 990,7 hPa 0,0 l/m 0,0 km/h O-SO 5,8 C 9,4 C 0,0 km/h
Min-Datum _ 31.03.14 02.04.14 03.04.14 - 31.03.14 - 31.03.14 31.03.14 31.03.14
_ Min-Zeit 06:19 16:19 18:19 - 00:19 - 06:19 06:19 00:19
Minimum _ 4,9 C 29 % 974,3 hPa - 0,0 km/h - 2,3 C 4,9 C 0,0 km/h
Max-Datum _ 06.04.14 05.04.14 06.04.14 31.03.14 31.03.14 - 06.04.14 06.04.14 31.03.14
_ Max-Zeit 17:19 01:19 10:19 00:19 12:19 - 11:19 17:19 12:19
Maximum _ 29,8 C 84 % 991,4 hPa 0,0 l/m 22,0 km/h
W
- 14,7 C 29,8 C 12,2 km/h
W
Durchschnitt _ 14,3 C 67 % 982,0 hPa #0,0 l/m 0,7 km/h O-SO 7,6 C 14,3 C 0,4 km/h
www.sexauwetter.de